Time;durP1;ratioP1;P1;durP2;ratioP2;P2;SDS_P1;SDS_P2;PMS_P1;PMS_P2;Temp;Humidity;BMP_temperature;BMP_pressure;BME280_temperature;BME280_humidity;BME280_pressure;Samples;Min_cycle;Max_cycle;Signal;HPM_P1;HPM_P2
2022/05/25 00:00:12;;;;;;;0.20;0.20;;;10.50;99.90;;;;;;5004540;28;20145;-84
2022/05/25 00:02:38;;;;;;;0.20;0.20;;;10.50;99.90;;;;;;5000293;28;20046;-83
2022/05/25 00:05:05;;;;;;;0.20;0.20;;;10.50;99.90;;;;;;5030595;28;20045;-84
2022/05/25 00:07:31;;;;;;;0.22;0.20;;;10.50;99.90;;;;;;5014136;28;20054;-85
2022/05/25 00:09:56;;;;;;;0.10;0.10;;;10.40;99.90;;;;;;5015637;28;20037;-85
2022/05/25 00:12:22;;;;;;;0.20;0.20;;;10.40;99.90;;;;;;4998914;28;20038;-84
2022/05/25 00:14:48;;;;;;;0.20;0.20;;;10.40;99.90;;;;;;4998751;28;20042;-85
2022/05/25 00:17:14;;;;;;;0.30;0.30;;;10.40;99.90;;;;;;5015092;28;20022;-85
2022/05/25 00:22:24;;;;;;;0.20;0.20;;;10.40;99.90;;;;;;5025349;28;20062;-85
2022/05/25 00:24:49;;;;;;;0.15;0.15;;;10.40;99.90;;;;;;5006111;28;20252;-85
2022/05/25 00:27:17;;;;;;;0.22;0.22;;;10.50;99.90;;;;;;5055846;28;20057;-86
2022/05/25 00:29:43;;;;;;;0.20;0.20;;;10.40;99.90;;;;;;5037572;28;20033;-85
2022/05/25 00:32:09;;;;;;;0.20;0.20;;;10.50;99.90;;;;;;5050479;28;20053;-84
2022/05/25 00:34:34;;;;;;;0.20;0.20;;;10.40;99.90;;;;;;4997786;28;20378;-84
2022/05/25 00:37:00;;;;;;;0.20;0.20;;;10.40;99.90;;;;;;5000102;28;20170;-84
2022/05/25 00:39:26;;;;;;;0.30;0.30;;;10.30;99.90;;;;;;4962352;28;20059;-83
2022/05/25 00:41:52;;;;;;;1.73;1.20;;;10.20;99.90;;;;;;5018760;28;20506;-84
2022/05/25 00:44:18;;;;;;;1.95;1.65;;;10.20;99.90;;;;;;5013331;28;20054;-84
2022/05/25 00:46:44;;;;;;;1.52;1.42;;;10.30;99.90;;;;;;4996927;28;20058;-83
2022/05/25 00:49:35;;;;;;;1.40;1.30;;;10.20;99.90;;;;;;5029821;28;20099;-83
2022/05/25 00:52:05;;;;;;;1.48;1.10;;;10.20;99.90;;;;;;4997723;28;20401;-84
2022/05/25 00:54:34;;;;;;;1.83;1.50;;;10.10;99.90;;;;;;4965196;28;20178;-86
2022/05/25 00:57:02;;;;;;;2.00;1.80;;;10.10;99.90;;;;;;5013251;28;20089;-84
2022/05/25 00:59:32;;;;;;;3.15;1.80;;;10.10;99.90;;;;;;4997527;28;20062;-84
2022/05/25 01:01:58;;;;;;;2.05;1.73;;;10.10;99.90;;;;;;4996661;28;20493;-84
2022/05/25 01:04:24;;;;;;;2.45;1.77;;;10.10;99.90;;;;;;4981162;28;20077;-84
2022/05/25 01:07:09;;;;;;;1.85;1.60;;;10.20;99.90;;;;;;4995577;28;20058;-84
2022/05/25 01:09:50;;;;;;;2.45;1.73;;;10.10;99.90;;;;;;5005853;28;20046;-84
2022/05/25 01:12:30;;;;;;;2.70;2.00;;;10.10;99.90;;;;;;5012950;28;20054;-84
2022/05/25 01:15:11;;;;;;;1.83;1.45;;;10.10;99.90;;;;;;5012401;28;20092;-85
2022/05/25 01:17:57;;;;;;;0.40;0.40;;;10.10;99.90;;;;;;5012110;28;20466;-84
2022/05/25 01:20:22;;;;;;;0.32;0.32;;;10.10;99.90;;;;;;5010653;28;20042;-85
2022/05/25 01:22:51;;;;;;;0.30;0.30;;;10.10;99.90;;;;;;4992734;28;20077;-84
2022/05/25 01:25:44;;;;;;;0.30;0.30;;;10.10;99.90;;;;;;4994446;28;20117;-84
2022/05/25 01:28:28;;;;;;;0.40;0.38;;;10.00;99.90;;;;;;5011555;28;20046;-83
2022/05/25 01:30:53;;;;;;;0.22;0.22;;;10.00;99.90;;;;;;5015992;28;20041;-86
2022/05/25 01:33:25;;;;;;;0.20;0.20;;;10.00;99.90;;;;;;5017265;28;20056;-85
2022/05/25 01:36:08;;;;;;;0.40;0.40;;;10.00;99.90;;;;;;5016482;28;20045;-84
2022/05/25 01:38:35;;;;;;;0.28;0.28;;;10.00;99.90;;;;;;5016613;28;20064;-84
2022/05/25 01:41:04;;;;;;;0.10;0.10;;;10.00;99.90;;;;;;5002534;28;20084;-85
2022/05/25 01:43:45;;;;;;;0.20;0.20;;;10.00;99.90;;;;;;4998556;28;20057;-84
2022/05/25 01:46:18;;;;;;;0.10;0.10;;;9.90;99.90;;;;;;5004976;28;20045;-84
2022/05/25 01:48:44;;;;;;;0.15;0.15;;;9.90;99.90;;;;;;5015715;28;20494;-85
2022/05/25 01:51:22;;;;;;;0.10;0.10;;;9.90;99.90;;;;;;5015641;28;20046;-83
2022/05/25 01:53:51;;;;;;;0.10;0.10;;;9.90;99.90;;;;;;4997614;28;20129;-84
2022/05/25 01:56:18;;;;;;;0.13;0.13;;;9.90;99.90;;;;;;5002145;28;20045;-83
2022/05/25 01:58:46;;;;;;;0.13;0.13;;;9.80;99.90;;;;;;4997845;28;20050;-90
2022/05/25 02:01:12;;;;;;;0.20;0.20;;;9.90;99.90;;;;;;4997601;28;20041;-84
2022/05/25 02:06:41;;;;;;;0.20;0.20;;;9.90;99.90;;;;;;5037310;28;20034;-85
2022/05/25 02:09:16;;;;;;;0.10;0.10;;;9.80;99.90;;;;;;5037139;28;20033;-87
2022/05/25 02:11:46;;;;;;;0.10;0.10;;;9.80;99.90;;;;;;5053217;28;20033;-86
2022/05/25 02:14:43;;;;;;;0.17;0.10;;;9.80;99.90;;;;;;5053927;28;20081;-88
2022/05/25 02:17:27;;;;;;;0.10;0.10;;;9.80;99.90;;;;;;4985461;28;20065;-86
2022/05/25 02:19:53;;;;;;;0.10;0.10;;;9.80;99.90;;;;;;5015391;28;20117;-84
2022/05/25 02:22:32;;;;;;;0.20;0.20;;;9.70;99.90;;;;;;4995785;28;20090;-84
2022/05/25 02:25:04;;;;;;;0.10;0.10;;;9.70;99.90;;;;;;4997815;28;20081;-84
2022/05/25 02:27:35;;;;;;;0.10;0.10;;;9.80;99.90;;;;;;5013407;28;20038;-83
2022/05/25 02:30:06;;;;;;;0.10;0.10;;;9.70;99.90;;;;;;5012308;28;20041;-83
2022/05/25 02:32:47;;;;;;;0.10;0.10;;;9.70;99.90;;;;;;5012639;28;20078;-83
2022/05/25 02:35:12;;;;;;;0.10;0.10;;;9.70;99.90;;;;;;5012868;28;20054;-83
2022/05/25 02:37:38;;;;;;;0.10;0.10;;;9.60;99.90;;;;;;4980618;28;20560;-83
2022/05/25 02:40:06;;;;;;;0.10;0.10;;;9.70;99.90;;;;;;5008232;28;20068;-84
2022/05/25 02:42:32;;;;;;;0.10;0.10;;;9.60;99.90;;;;;;4991605;28;20494;-86
2022/05/25 02:44:57;;;;;;;0.10;0.10;;;9.70;99.90;;;;;;5027605;28;20041;-84
2022/05/25 02:47:23;;;;;;;0.10;0.10;;;9.50;99.90;;;;;;5028279;28;20038;-84
2022/05/25 02:49:49;;;;;;;0.00;0.00;;;9.60;99.90;;;;;;5012018;28;20125;-83
2022/05/25 02:52:14;;;;;;;0.10;0.10;;;9.50;99.90;;;;;;5014239;28;20049;-84
2022/05/25 02:54:40;;;;;;;0.10;0.10;;;9.50;99.90;;;;;;5015834;28;20046;-84
2022/05/25 02:57:07;;;;;;;0.10;0.10;;;9.50;99.90;;;;;;5015595;28;20566;-84
2022/05/25 02:59:32;;;;;;;0.10;0.10;;;9.50;99.90;;;;;;5015307;28;20042;-84
2022/05/25 03:01:58;;;;;;;0.10;0.10;;;9.50;99.90;;;;;;5015265;28;20056;-84
2022/05/25 03:04:24;;;;;;;0.10;0.10;;;9.40;99.90;;;;;;4982888;28;20461;-84
2022/05/25 03:06:51;;;;;;;0.00;0.00;;;9.50;99.90;;;;;;5015470;28;20169;-86
2022/05/25 03:09:17;;;;;;;0.10;0.10;;;9.50;99.90;;;;;;4998919;28;20049;-84
2022/05/25 03:11:42;;;;;;;0.10;0.10;;;9.40;99.90;;;;;;4995948;28;20050;-84
2022/05/25 03:14:08;;;;;;;0.10;0.10;;;9.40;99.90;;;;;;5017418;28;20049;-84
2022/05/25 03:16:34;;;;;;;0.10;0.10;;;9.40;99.90;;;;;;4999215;28;20053;-83
2022/05/25 03:18:59;;;;;;;0.20;0.10;;;9.40;99.90;;;;;;5031667;28;20498;-83
2022/05/25 03:21:25;;;;;;;0.03;0.03;;;9.40;99.90;;;;;;5014855;28;20125;-84
2022/05/25 03:23:51;;;;;;;0.10;0.10;;;9.40;99.90;;;;;;5015394;28;20060;-84
2022/05/25 03:26:17;;;;;;;0.10;0.10;;;9.40;99.90;;;;;;5014582;28;20045;-84
2022/05/25 03:28:42;;;;;;;0.10;0.10;;;9.40;99.90;;;;;;4997357;28;20463;-84
2022/05/25 03:31:08;;;;;;;0.00;0.00;;;9.50;99.90;;;;;;4996606;28;20053;-84
2022/05/25 03:33:34;;;;;;;0.10;0.10;;;9.40;99.90;;;;;;5015209;28;20077;-84
2022/05/25 03:35:59;;;;;;;0.10;0.10;;;9.40;99.90;;;;;;5031124;28;20076;-83
2022/05/25 03:38:27;;;;;;;0.20;0.20;;;9.40;99.90;;;;;;5002600;28;20134;-83
2022/05/25 03:40:53;;;;;;;0.10;0.10;;;9.40;99.90;;;;;;4997185;28;20043;-83
2022/05/25 03:43:18;;;;;;;0.10;0.10;;;9.40;99.90;;;;;;4989138;28;20060;-83
2022/05/25 03:45:46;;;;;;;0.10;0.10;;;9.40;99.90;;;;;;5030477;28;20049;-84
2022/05/25 03:48:11;;;;;;;0.10;0.10;;;9.40;99.90;;;;;;4981860;28;20132;-83
2022/05/25 03:50:38;;;;;;;0.22;0.22;;;9.40;99.90;;;;;;5033502;28;20030;-84
2022/05/25 03:53:06;;;;;;;0.17;0.10;;;9.40;99.90;;;;;;5020614;28;20068;-91
2022/05/25 03:55:32;;;;;;;0.10;0.10;;;9.40;99.90;;;;;;5040406;28;20033;-86
2022/05/25 03:57:58;;;;;;;0.10;0.10;;;9.50;99.90;;;;;;5056291;28;20109;-85
2022/05/25 04:00:24;;;;;;;0.10;0.10;;;9.50;99.90;;;;;;5055179;28;20060;-85
2022/05/25 04:02:49;;;;;;;0.10;0.10;;;9.50;99.90;;;;;;5015301;28;20042;-84
2022/05/25 04:05:15;;;;;;;0.20;0.20;;;9.50;99.90;;;;;;4995648;28;20393;-84
2022/05/25 04:07:42;;;;;;;0.10;0.10;;;9.50;99.90;;;;;;5001883;28;20049;-83
2022/05/25 04:10:12;;;;;;;0.10;0.10;;;9.50;99.90;;;;;;5012725;28;20416;-85
2022/05/25 04:12:38;;;;;;;0.10;0.10;;;9.50;99.90;;;;;;4971381;28;20155;-84
2022/05/25 04:15:04;;;;;;;0.10;0.10;;;9.50;99.90;;;;;;5030340;28;20057;-84
2022/05/25 04:17:32;;;;;;;0.10;0.10;;;9.50;99.90;;;;;;5003637;28;20042;-83
2022/05/25 04:19:57;;;;;;;0.13;0.10;;;9.50;99.90;;;;;;4979698;28;20043;-83
2022/05/25 04:22:23;;;;;;;0.10;0.10;;;9.60;99.90;;;;;;4997065;28;20466;-84
2022/05/25 04:24:49;;;;;;;0.00;0.00;;;9.50;99.90;;;;;;5006499;28;20057;-84
2022/05/25 04:27:14;;;;;;;0.05;0.05;;;9.60;99.90;;;;;;5013195;28;20406;-85
2022/05/25 04:29:40;;;;;;;0.10;0.10;;;9.60;99.90;;;;;;4994840;28;20072;-85
2022/05/25 04:32:06;;;;;;;0.10;0.10;;;9.60;99.90;;;;;;4979041;28;20080;-83
2022/05/25 04:34:32;;;;;;;0.10;0.10;;;9.60;99.90;;;;;;5013100;28;20104;-83
2022/05/25 04:37:48;;;;;;;0.10;0.10;;;9.70;99.90;;;;;;5014056;28;20128;-84
2022/05/25 04:39:43;;;;;;;0.10;0.10;;;9.70;99.90;;;;;;5011726;28;20054;-84
2022/05/25 04:42:09;;;;;;;0.08;0.08;;;9.70;99.90;;;;;;5029975;28;20406;-84
2022/05/25 04:44:35;;;;;;;0.10;0.10;;;9.70;99.90;;;;;;5029745;28;20133;-83
2022/05/25 04:47:01;;;;;;;0.10;0.10;;;9.70;99.90;;;;;;5031041;28;20084;-84
2022/05/25 04:49:26;;;;;;;0.10;0.10;;;9.80;99.90;;;;;;5029453;28;20410;-85
2022/05/25 04:51:52;;;;;;;0.00;0.00;;;9.80;99.90;;;;;;4981611;28;20053;-83
2022/05/25 04:54:18;;;;;;;0.08;0.08;;;9.90;99.90;;;;;;5012900;28;20410;-83
2022/05/25 04:59:27;;;;;;;0.10;0.10;;;9.80;99.90;;;;;;5000289;28;20058;-84
2022/05/25 05:01:53;;;;;;;0.00;0.00;;;9.80;99.90;;;;;;4999868;28;20089;-82
2022/05/25 05:04:19;;;;;;;0.03;0.03;;;9.90;99.90;;;;;;4978633;28;20057;-87
2022/05/25 05:06:44;;;;;;;0.10;0.10;;;9.90;99.90;;;;;;4982156;28;20045;-87
2022/05/25 05:09:11;;;;;;;0.20;0.20;;;10.00;99.90;;;;;;5030660;28;20049;-95
2022/05/25 05:11:37;;;;;;;0.10;0.10;;;10.00;99.90;;;;;;5014740;28;20088;-86
2022/05/25 05:14:03;;;;;;;0.10;0.10;;;10.00;99.90;;;;;;5013688;28;20052;-86
2022/05/25 05:16:29;;;;;;;0.00;0.00;;;10.10;99.90;;;;;;5015813;28;20060;-86
2022/05/25 05:18:55;;;;;;;0.10;0.10;;;10.10;99.90;;;;;;5014529;28;20385;-86
2022/05/25 05:21:20;;;;;;;0.05;0.05;;;10.10;99.90;;;;;;5029329;28;20410;-86
2022/05/25 05:23:46;;;;;;;0.00;0.00;;;10.20;99.90;;;;;;5029479;28;20054;-85
2022/05/25 05:26:13;;;;;;;0.10;0.10;;;10.20;99.90;;;;;;5027014;28;20387;-85
2022/05/25 05:28:40;;;;;;;0.00;0.00;;;10.30;99.90;;;;;;4993942;28;20078;-92
2022/05/25 05:31:05;;;;;;;0.03;0.03;;;10.30;99.90;;;;;;5021824;28;20045;-84
2022/05/25 05:33:36;;;;;;;0.10;0.10;;;10.40;99.90;;;;;;5054369;28;20030;-85
2022/05/25 05:36:09;;;;;;;0.10;0.10;;;10.30;99.90;;;;;;5014326;28;20028;-87
2022/05/25 05:38:39;;;;;;;0.03;0.03;;;10.40;99.90;;;;;;5030988;28;20028;-89
2022/05/25 05:41:05;;;;;;;0.00;0.00;;;10.40;99.90;;;;;;5036930;28;20030;-90
2022/05/25 05:43:31;;;;;;;0.00;0.00;;;10.50;99.90;;;;;;5001191;28;20046;-85
2022/05/25 05:45:56;;;;;;;0.10;0.10;;;10.50;99.90;;;;;;5012769;28;20097;-85
2022/05/25 05:48:24;;;;;;;0.10;0.10;;;10.50;99.90;;;;;;5012375;28;20046;-83
2022/05/25 05:50:54;;;;;;;0.10;0.10;;;10.60;99.90;;;;;;4994735;28;20044;-82
2022/05/25 05:53:19;;;;;;;0.00;0.00;;;10.60;99.90;;;;;;5009398;28;20505;-84
2022/05/25 05:55:46;;;;;;;0.03;0.03;;;10.70;99.90;;;;;;5011936;28;20053;-83
2022/05/25 05:58:12;;;;;;;0.10;0.10;;;10.70;99.90;;;;;;4993974;28;20477;-83
2022/05/25 06:00:38;;;;;;;0.10;0.10;;;10.70;99.90;;;;;;4993173;28;20050;-82
2022/05/25 06:03:04;;;;;;;0.00;0.00;;;10.80;99.90;;;;;;5008751;28;20050;-83
2022/05/25 06:05:30;;;;;;;0.10;0.10;;;10.80;99.90;;;;;;4992839;28;20398;-83
2022/05/25 06:07:55;;;;;;;0.10;0.10;;;10.90;99.90;;;;;;4992791;28;20050;-83
2022/05/25 06:10:21;;;;;;;0.10;0.10;;;10.90;99.90;;;;;;4993425;28;20050;-85
2022/05/25 06:12:47;;;;;;;0.10;0.10;;;11.00;99.90;;;;;;5009431;28;20054;-83
2022/05/25 06:20:41;;;;;;;0.10;0.10;;;11.10;99.90;;;;;;4978978;28;20050;-83
2022/05/25 06:23:07;;;;;;;0.03;0.03;;;11.20;99.90;;;;;;5008781;28;20054;-84
2022/05/25 06:25:32;;;;;;;0.08;0.08;;;11.30;99.90;;;;;;4992567;28;20070;-84
2022/05/25 06:27:58;;;;;;;0.10;0.10;;;11.30;99.90;;;;;;5008843;28;20061;-84
2022/05/25 06:30:24;;;;;;;0.10;0.10;;;11.40;99.90;;;;;;5008760;28;20050;-84
2022/05/25 06:32:50;;;;;;;0.00;0.00;;;11.50;99.90;;;;;;4992977;28;20442;-83
2022/05/25 06:35:16;;;;;;;0.10;0.10;;;11.50;99.90;;;;;;5009169;28;20042;-84
2022/05/25 06:37:41;;;;;;;0.10;0.10;;;11.60;99.90;;;;;;5008236;28;20245;-84
2022/05/25 06:40:08;;;;;;;0.10;0.10;;;11.70;99.90;;;;;;4992668;28;20078;-84
2022/05/25 06:42:36;;;;;;;0.10;0.10;;;11.70;99.90;;;;;;4976083;28;20050;-84
2022/05/25 06:45:01;;;;;;;0.10;0.10;;;11.90;99.90;;;;;;5008685;28;20051;-84
2022/05/25 06:47:27;;;;;;;0.00;0.00;;;12.00;99.90;;;;;;4992224;28;20058;-84
2022/05/25 06:49:53;;;;;;;0.10;0.10;;;12.00;99.90;;;;;;5008650;28;20046;-84
2022/05/25 06:52:19;;;;;;;0.13;0.13;;;12.10;99.90;;;;;;5008780;28;20050;-83
2022/05/25 06:54:45;;;;;;;0.00;0.00;;;12.20;99.90;;;;;;4993234;28;20046;-83
2022/05/25 06:57:10;;;;;;;0.10;0.10;;;12.30;99.90;;;;;;5008561;28;20458;-84
2022/05/25 06:59:36;;;;;;;0.10;0.10;;;12.40;99.90;;;;;;5008358;28;20372;-84
2022/05/25 07:02:02;;;;;;;0.10;0.10;;;12.50;99.90;;;;;;4992516;28;20046;-84
2022/05/25 07:04:27;;;;;;;0.10;0.10;;;12.50;99.90;;;;;;4993244;28;20054;-85
2022/05/25 07:06:53;;;;;;;0.10;0.10;;;12.70;99.90;;;;;;4992022;28;20403;-84
2022/05/25 07:09:19;;;;;;;0.10;0.10;;;12.70;99.90;;;;;;4993310;28;20042;-84
2022/05/25 07:11:52;;;;;;;0.05;0.05;;;12.90;99.90;;;;;;4975770;28;20136;-84
2022/05/25 07:14:17;;;;;;;0.10;0.10;;;12.90;99.90;;;;;;5015876;28;20038;-83
2022/05/25 07:16:43;;;;;;;0.10;0.10;;;13.00;99.90;;;;;;5033435;28;20045;-82
2022/05/25 07:19:08;;;;;;;0.10;0.10;;;13.20;99.90;;;;;;5014800;28;20101;-83
2022/05/25 07:21:34;;;;;;;0.10;0.10;;;13.30;99.90;;;;;;5016998;28;20043;-86
2022/05/25 07:24:00;;;;;;;0.10;0.10;;;13.50;99.90;;;;;;5033713;28;20045;-84
2022/05/25 07:26:28;;;;;;;0.10;0.10;;;13.70;99.90;;;;;;5001110;28;20022;-84
2022/05/25 07:28:53;;;;;;;0.10;0.10;;;13.90;99.90;;;;;;5020852;28;20051;-83
2022/05/25 07:31:27;;;;;;;0.70;0.15;;;14.10;99.90;;;;;;5008823;28;20393;-83
2022/05/25 07:34:08;;;;;;;0.38;0.10;;;14.30;99.90;;;;;;4993096;28;20100;-84
2022/05/25 07:36:35;;;;;;;0.10;0.10;;;14.40;99.90;;;;;;5008174;28;20454;-85
2022/05/25 07:39:03;;;;;;;0.40;0.30;;;14.60;99.90;;;;;;5011214;28;20046;-82
2022/05/25 07:41:29;;;;;;;0.20;0.20;;;14.80;99.90;;;;;;4997124;28;20458;-81
2022/05/25 07:43:57;;;;;;;0.20;0.20;;;15.00;99.90;;;;;;4995705;28;20130;-81
2022/05/25 07:46:26;;;;;;;0.20;0.20;;;15.10;99.90;;;;;;4995714;28;20050;-82
2022/05/25 07:48:52;;;;;;;0.10;0.10;;;15.20;99.90;;;;;;4995600;28;20418;-83
2022/05/25 07:51:18;;;;;;;0.10;0.10;;;15.20;99.90;;;;;;5011935;28;20197;-86
2022/05/25 07:53:55;;;;;;;0.30;0.15;;;15.20;99.90;;;;;;4995129;28;20403;-83
2022/05/25 07:56:22;;;;;;;0.20;0.17;;;15.20;99.90;;;;;;4980798;28;20541;-83
2022/05/25 07:58:48;;;;;;;0.10;0.10;;;15.10;99.90;;;;;;5011390;28;20054;-83
2022/05/25 08:01:15;;;;;;;0.10;0.10;;;14.90;99.90;;;;;;5011557;28;20069;-84
2022/05/25 08:06:26;;;;;;;0.10;0.10;;;14.90;99.90;;;;;;4995500;28;20047;-84
2022/05/25 08:08:54;;;;;;;0.05;0.05;;;14.90;99.90;;;;;;4994822;28;20486;-84
2022/05/25 08:11:21;;;;;;;0.10;0.10;;;14.90;99.90;;;;;;5010703;28;20449;-84
2022/05/25 08:13:49;;;;;;;0.10;0.10;;;15.00;99.90;;;;;;4962713;28;20050;-84
2022/05/25 08:16:15;;;;;;;0.10;0.10;;;15.00;99.90;;;;;;4978917;28;20050;-83
2022/05/25 08:18:41;;;;;;;0.10;0.10;;;15.10;99.90;;;;;;4995497;28;20075;-84
2022/05/25 08:21:06;;;;;;;0.10;0.10;;;15.20;99.90;;;;;;4978373;28;20085;-82
2022/05/25 08:23:32;;;;;;;0.52;0.15;;;15.20;99.90;;;;;;5011520;28;20054;-81
2022/05/25 08:25:58;;;;;;;0.10;0.10;;;15.40;99.90;;;;;;4994566;28;20054;-81
2022/05/25 08:28:23;;;;;;;0.13;0.10;;;15.50;99.90;;;;;;5011228;28;20046;-80
2022/05/25 08:30:49;;;;;;;0.13;0.13;;;15.70;99.90;;;;;;5010693;28;20516;-80
2022/05/25 08:33:20;;;;;;;0.10;0.10;;;15.80;99.90;;;;;;5010958;28;20056;-79
2022/05/25 08:35:46;;;;;;;0.32;0.10;;;16.00;99.90;;;;;;4994212;28;20057;-79
2022/05/25 08:38:12;;;;;;;0.10;0.10;;;16.20;99.90;;;;;;5010811;28;20050;-80
2022/05/25 08:40:37;;;;;;;0.10;0.10;;;16.40;99.90;;;;;;4994613;28;20058;-79
2022/05/25 08:43:25;;;;;;;0.17;0.10;;;16.60;99.90;;;;;;4994039;28;20137;-80
2022/05/25 08:46:01;;;;;;;0.10;0.10;;;16.70;99.90;;;;;;4993857;28;20124;-85
2022/05/25 08:48:28;;;;;;;0.10;0.10;;;16.80;99.90;;;;;;4994367;28;20093;-80
2022/05/25 08:50:57;;;;;;;0.10;0.10;;;16.80;99.90;;;;;;5009456;28;20042;-80
2022/05/25 08:53:26;;;;;;;0.30;0.20;;;16.80;99.90;;;;;;4994488;28;20055;-81
2022/05/25 08:56:01;;;;;;;0.20;0.20;;;16.90;99.90;;;;;;5010383;28;20108;-81
2022/05/25 08:59:02;;;;;;;0.10;0.10;;;16.90;99.90;;;;;;5017860;28;20078;-81
2022/05/25 09:01:29;;;;;;;0.35;0.20;;;16.90;99.90;;;;;;5003421;28;20066;-81
2022/05/25 09:04:29;;;;;;;0.20;0.20;;;17.00;99.90;;;;;;5030792;28;20087;-81
2022/05/25 09:07:19;;;;;;;0.20;0.20;;;17.00;99.90;;;;;;5017648;28;20039;-83
2022/05/25 09:09:46;;;;;;;0.20;0.20;;;17.10;99.90;;;;;;5019211;28;20372;-84
2022/05/25 09:12:25;;;;;;;0.20;0.20;;;17.10;99.90;;;;;;5033921;28;20461;-80
2022/05/25 09:14:56;;;;;;;0.20;0.20;;;17.10;99.90;;;;;;5016491;28;20047;-81
2022/05/25 09:17:27;;;;;;;0.20;0.10;;;17.10;99.90;;;;;;4995962;28;20042;-81
2022/05/25 09:20:06;;;;;;;0.15;0.15;;;17.20;99.90;;;;;;4993672;28;20061;-81
2022/05/25 09:22:32;;;;;;;0.20;0.20;;;17.40;99.90;;;;;;4994793;28;20069;-81
2022/05/25 09:24:59;;;;;;;0.10;0.10;;;17.40;99.90;;;;;;4994632;28;20468;-81
2022/05/25 09:27:31;;;;;;;0.20;0.20;;;17.40;99.90;;;;;;4994107;28;20418;-81
2022/05/25 09:29:58;;;;;;;0.60;0.20;;;17.50;99.90;;;;;;4961499;28;20129;-82
2022/05/25 09:32:56;;;;;;;0.28;0.20;;;17.50;99.90;;;;;;4993628;28;20410;-80
2022/05/25 09:35:29;;;;;;;0.22;0.20;;;17.60;99.90;;;;;;4989492;28;20422;-84
2022/05/25 09:37:55;;;;;;;0.20;0.20;;;17.60;99.90;;;;;;4993187;28;20434;-82
2022/05/25 09:40:25;;;;;;;0.10;0.10;;;17.60;99.90;;;;;;4993625;28;20104;-84
2022/05/25 09:42:52;;;;;;;0.10;0.10;;;17.60;99.90;;;;;;5009497;28;20046;-85
2022/05/25 09:45:18;;;;;;;0.10;0.10;;;17.50;99.90;;;;;;5009457;28;20062;-84
2022/05/25 09:47:45;;;;;;;0.20;0.10;;;17.30;99.90;;;;;;4993167;28;20046;-82
2022/05/25 09:50:25;;;;;;;0.10;0.10;;;17.10;99.90;;;;;;4993820;28;20125;-81
2022/05/25 09:52:51;;;;;;;0.10;0.10;;;17.00;99.90;;;;;;4993116;28;20206;-82
2022/05/25 09:55:50;;;;;;;0.32;0.20;;;17.00;99.90;;;;;;5009467;28;20290;-85
2022/05/25 09:58:36;;;;;;;0.10;0.10;;;17.00;99.30;;;;;;4992657;28;20053;-83
2022/05/25 10:01:24;;;;;;;0.20;0.20;;;17.10;99.80;;;;;;4992637;28;20042;-81
2022/05/25 10:03:50;;;;;;;0.17;0.17;;;17.30;99.70;;;;;;4992829;28;20629;-81
2022/05/25 10:06:29;;;;;;;0.20;0.20;;;17.50;99.90;;;;;;4992709;28;20141;-81
2022/05/25 10:09:21;;;;;;;0.20;0.20;;;17.60;99.90;;;;;;5007545;28;20180;-83
2022/05/25 10:11:58;;;;;;;0.10;0.10;;;17.60;98.30;;;;;;4987350;28;20097;-83
2022/05/25 10:14:37;;;;;;;0.10;0.10;;;17.50;99.30;;;;;;4993092;28;20050;-86
2022/05/25 10:17:13;;;;;;;0.20;0.20;;;17.40;99.10;;;;;;5008558;28;20509;-81
2022/05/25 10:19:47;;;;;;;0.20;0.20;;;17.30;99.00;;;;;;5008619;28;20085;-80
2022/05/25 10:22:33;;;;;;;0.25;0.20;;;17.10;99.00;;;;;;5008496;28;20293;-77
2022/05/25 10:25:09;;;;;;;0.20;0.20;;;17.00;99.60;;;;;;4993698;28;20133;-82
2022/05/25 10:27:42;;;;;;;0.20;0.20;;;17.00;99.90;;;;;;4960215;28;20054;-81
2022/05/25 10:38:48;;;;;;;0.10;0.10;;;17.30;99.40;;;;;;4992781;28;20057;-78
2022/05/25 10:44:17;;;;;;;0.10;0.10;;;17.50;99.90;;;;;;5006141;28;20092;-79
2022/05/25 10:46:49;;;;;;;0.17;0.10;;;17.70;98.70;;;;;;4992191;28;20465;-78
2022/05/25 10:49:36;;;;;;;0.10;0.10;;;17.70;99.60;;;;;;5010074;28;20042;-79
2022/05/25 10:52:32;;;;;;;0.15;0.15;;;17.50;97.80;;;;;;4980510;28;20046;-78
2022/05/25 10:54:57;;;;;;;0.20;0.20;;;17.40;97.60;;;;;;5022604;28;20089;-79
2022/05/25 10:57:36;;;;;;;0.15;0.10;;;17.30;98.80;;;;;;5025935;28;20086;-79
2022/05/25 11:00:17;;;;;;;0.20;0.20;;;17.30;99.30;;;;;;5017531;28;20041;-84
2022/05/25 11:03:06;;;;;;;0.17;0.17;;;17.40;99.40;;;;;;5033909;28;20026;-79
2022/05/25 11:05:46;;;;;;;0.20;0.20;;;17.50;99.10;;;;;;5017717;28;20064;-78
2022/05/25 11:08:43;;;;;;;0.10;0.10;;;17.70;99.80;;;;;;5007554;28;20061;-78
2022/05/25 11:11:21;;;;;;;0.13;0.10;;;17.80;97.40;;;;;;4992569;28;20046;-78
2022/05/25 11:14:17;;;;;;;0.35;0.20;;;17.80;96.30;;;;;;4996456;28;20092;-78
2022/05/25 11:17:26;;;;;;;0.10;0.10;;;17.80;95.70;;;;;;4997798;28;20053;-78
2022/05/25 11:20:14;;;;;;;0.20;0.20;;;17.90;95.90;;;;;;4997033;28;20050;-78
2022/05/25 11:22:58;;;;;;;0.30;0.30;;;18.00;97.80;;;;;;4997723;28;20056;-77
2022/05/25 11:25:52;;;;;;;0.20;0.20;;;18.00;96.30;;;;;;4995975;28;20394;-78
2022/05/25 11:28:42;;;;;;;0.10;0.10;;;18.10;94.60;;;;;;5011958;28;20458;-78
2022/05/25 11:31:36;;;;;;;0.20;0.20;;;18.20;95.10;;;;;;4997196;28;20086;-77
2022/05/25 11:34:45;;;;;;;0.20;0.20;;;18.30;94.70;;;;;;4994395;28;20065;-80
2022/05/25 11:37:20;;;;;;;0.30;0.20;;;18.30;95.30;;;;;;4975532;28;20082;-78
2022/05/25 11:40:03;;;;;;;0.20;0.20;;;18.20;95.90;;;;;;4995182;28;20054;-77
2022/05/25 11:42:49;;;;;;;0.10;0.10;;;18.00;95.80;;;;;;5011880;28;20047;-77
2022/05/25 11:46:10;;;;;;;0.10;0.10;;;17.70;97.30;;;;;;5011902;28;20050;-78
2022/05/25 11:48:51;;;;;;;0.13;0.13;;;17.50;95.20;;;;;;4993227;28;20054;-78
2022/05/25 11:51:56;;;;;;;0.10;0.10;;;17.30;97.20;;;;;;4996288;28;20057;-78
2022/05/25 11:54:41;;;;;;;0.10;0.10;;;17.20;97.10;;;;;;4996509;28;20050;-78
2022/05/25 11:57:34;;;;;;;0.10;0.10;;;17.20;96.50;;;;;;4995247;28;20046;-78
2022/05/25 12:00:21;;;;;;;0.15;0.15;;;17.30;97.20;;;;;;4994868;28;20042;-78
2022/05/25 12:03:03;;;;;;;0.10;0.10;;;17.50;97.80;;;;;;4995334;28;20050;-79
2022/05/25 12:05:41;;;;;;;0.10;0.10;;;17.70;97.80;;;;;;5009918;28;20091;-79
2022/05/25 12:08:37;;;;;;;0.10;0.10;;;17.80;97.50;;;;;;5011114;28;20125;-79
2022/05/25 12:11:35;;;;;;;0.10;0.10;;;17.90;97.30;;;;;;4996083;28;20050;-78
2022/05/25 12:14:34;;;;;;;0.10;0.10;;;18.10;96.60;;;;;;5011069;28;20081;-79
2022/05/25 12:17:07;;;;;;;0.10;0.10;;;18.10;96.40;;;;;;4995493;28;20442;-78
2022/05/25 12:19:34;;;;;;;0.10;0.10;;;18.30;97.20;;;;;;4994534;28;20046;-79
2022/05/25 12:22:05;;;;;;;0.10;0.10;;;18.40;97.20;;;;;;4994461;28;20093;-79
2022/05/25 12:24:34;;;;;;;0.20;0.20;;;18.40;97.00;;;;;;4994086;28;20054;-78
2022/05/25 12:27:01;;;;;;;0.10;0.10;;;18.40;97.20;;;;;;4995329;28;20145;-79
2022/05/25 12:29:39;;;;;;;0.20;0.20;;;18.50;97.40;;;;;;4978062;28;20137;-78
2022/05/25 12:32:05;;;;;;;0.10;0.10;;;18.50;96.20;;;;;;4994563;28;20112;-79
2022/05/25 12:34:42;;;;;;;0.10;0.10;;;18.40;96.00;;;;;;5010260;28;20050;-79
2022/05/25 12:37:12;;;;;;;0.05;0.05;;;18.40;94.60;;;;;;4994196;28;20050;-79
2022/05/25 12:39:47;;;;;;;0.10;0.10;;;18.30;95.00;;;;;;4994104;28;20046;-78
2022/05/25 12:42:25;;;;;;;0.00;0.00;;;18.30;94.30;;;;;;4995503;28;20398;-79
2022/05/25 12:50:38;;;;;;;0.08;0.08;;;18.40;94.40;;;;;;5005768;28;20046;-79
2022/05/25 12:53:33;;;;;;;0.00;0.00;;;18.40;91.30;;;;;;5004071;28;20109;-82
2022/05/25 12:56:18;;;;;;;0.10;0.10;;;18.40;89.00;;;;;;5020015;28;20030;-83
2022/05/25 12:58:47;;;;;;;0.00;0.00;;;18.40;92.90;;;;;;5033590;28;20041;-79
2022/05/25 13:01:28;;;;;;;0.10;0.10;;;18.40;92.60;;;;;;5019790;28;20042;-81
2022/05/25 13:03:57;;;;;;;0.00;0.00;;;18.50;90.80;;;;;;5009898;28;20050;-77
2022/05/25 13:06:42;;;;;;;0.00;0.00;;;18.50;91.30;;;;;;4994266;28;20082;-80
2022/05/25 13:09:39;;;;;;;0.00;0.00;;;18.40;88.50;;;;;;4990866;28;20058;-78
2022/05/25 13:12:39;;;;;;;0.00;0.00;;;18.40;92.10;;;;;;4994409;28;20141;-78
2022/05/25 13:15:15;;;;;;;0.10;0.10;;;18.50;90.60;;;;;;4995284;28;20050;-78
2022/05/25 13:17:47;;;;;;;0.10;0.05;;;18.50;90.70;;;;;;5010073;28;20136;-78
2022/05/25 13:20:46;;;;;;;0.00;0.00;;;18.50;91.10;;;;;;4994372;28;20061;-79
2022/05/25 13:23:33;;;;;;;0.00;0.00;;;18.50;90.50;;;;;;4993228;28;20062;-78
2022/05/25 13:26:02;;;;;;;0.00;0.00;;;18.40;89.80;;;;;;5001339;28;20062;-77
2022/05/25 13:28:53;;;;;;;0.00;0.00;;;18.40;89.80;;;;;;4994316;28;20061;-77
2022/05/25 13:31:22;;;;;;;0.03;0.03;;;18.40;82.00;;;;;;4989453;28;20058;-78
2022/05/25 13:33:47;;;;;;;0.05;0.05;;;18.50;91.10;;;;;;4993929;28;20061;-79
2022/05/25 13:36:19;;;;;;;0.00;0.00;;;18.50;90.80;;;;;;4993762;28;20050;-79
2022/05/25 13:39:03;;;;;;;0.00;0.00;;;18.50;90.60;;;;;;4994498;28;20434;-77
2022/05/25 13:41:42;;;;;;;0.03;0.03;;;18.60;84.60;;;;;;5009207;28;20125;-79
2022/05/25 13:44:13;;;;;;;0.10;0.10;;;18.50;84.70;;;;;;4993223;28;20054;-79
2022/05/25 13:46:41;;;;;;;0.00;0.00;;;18.60;89.30;;;;;;4994531;28;20297;-78
2022/05/25 13:49:09;;;;;;;0.00;0.00;;;18.60;90.30;;;;;;4994713;28;20066;-80